Weather at Aberdeen Dyce Airport

Public forecast

Using degrees Celsius for public forecast. Weather courtesy of forecast.io.

Current aviation weather report (METAR) for Aberdeen Dyce Airport

Retrieved 2020/10/27 22:20 UTC (17 minutes ago):

EGPD 272220Z AUTO 29016KT 5000 -RA OVC030/// //////TCU 06/05 Q0983 RERA BECMG 21006KT

Aviation forecast (TAF) for Aberdeen Dyce Airport

Retrieved 2020/10/27 18:00 UTC (5 hours ago):

TAF EGPD 271702Z 2718/2818 16009KT 9999 SCT012 BKN025 TEMPO 2718/2801 6000 RA -RADZ BKN012 PROB40 TEMPO 2718/2723 3000 +RA RADZ BKN004 BECMG 2719/2722 27015G28KT BECMG 2722/2801 21008KT